Time;durP1;ratioP1;P1;durP2;ratioP2;P2;SDS_P1;SDS_P2;PMS_P1;PMS_P2;Temp;Humidity;BMP_temperature;BMP_pressure;BME280_temperature;BME280_humidity;BME280_pressure;Samples;Min_cycle;Max_cycle;Signal;HPM_P1;HPM_P2
2022/10/06 00:02:18;;;;;;;41.15;30.02;;;21.50;54.40;;;;;;4820030;54;21489;-28
2022/10/06 00:07:19;;;;;;;39.03;29.95;;;21.40;54.40;;;;;;4817467;54;21511;-30
2022/10/06 00:12:20;;;;;;;37.53;29.25;;;21.40;54.40;;;;;;4795257;58;21213;-26
2022/10/06 00:17:20;;;;;;;36.25;28.65;;;21.40;54.40;;;;;;4811917;54;21008;-28
2022/10/06 00:22:21;;;;;;;40.08;29.60;;;21.40;54.30;;;;;;4825168;54;21015;-25
2022/10/06 00:27:22;;;;;;;39.40;29.05;;;21.50;54.40;;;;;;4803919;54;20992;-30
2022/10/06 00:32:23;;;;;;;36.00;28.05;;;21.40;54.40;;;;;;4819670;54;21004;-28
2022/10/06 00:37:25;;;;;;;37.20;27.70;;;21.40;54.40;;;;;;4815385;54;21004;-33
2022/10/06 00:42:28;;;;;;;37.88;27.52;;;21.40;54.30;;;;;;4821271;54;21086;-28
2022/10/06 00:47:32;;;;;;;38.60;28.45;;;21.40;54.30;;;;;;4795617;58;21008;-32
2022/10/06 00:52:33;;;;;;;35.28;26.62;;;21.40;54.30;;;;;;4833260;54;21051;-34
2022/10/06 00:57:36;;;;;;;35.05;26.80;;;21.40;54.30;;;;;;4811473;54;21119;-28
2022/10/06 01:02:55;;;;;;;35.22;27.35;;;21.40;54.30;;;;;;4795426;58;21099;-28
2022/10/06 01:07:57;;;;;;;34.30;26.58;;;21.40;54.20;;;;;;4815701;54;21470;-33
2022/10/06 01:12:58;;;;;;;34.88;25.45;;;21.40;54.20;;;;;;4855433;54;21581;-31
2022/10/06 01:18:11;;;;;;;34.05;26.33;;;21.40;54.20;;;;;;4847951;54;21008;-35
2022/10/06 01:23:12;;;;;;;33.90;25.65;;;21.40;54.20;;;;;;4829040;54;21510;-26
2022/10/06 01:28:13;;;;;;;33.38;26.02;;;21.40;54.20;;;;;;4823811;54;21012;-36
2022/10/06 01:33:14;;;;;;;32.78;26.00;;;21.40;54.10;;;;;;4860967;54;21008;-29
2022/10/06 01:38:16;;;;;;;33.08;23.92;;;21.40;54.10;;;;;;4837372;54;21020;-36
2022/10/06 01:43:16;;;;;;;31.45;23.75;;;21.40;54.10;;;;;;4808005;54;21068;-33
2022/10/06 01:48:17;;;;;;;30.60;24.67;;;21.40;54.10;;;;;;4796191;54;21028;-27
2022/10/06 01:53:18;;;;;;;29.30;23.48;;;21.40;54.70;;;;;;4873290;54;21076;-32
2022/10/06 01:58:19;;;;;;;30.00;23.17;;;21.40;54.10;;;;;;4800651;54;21011;-27
2022/10/06 02:03:20;;;;;;;30.58;23.30;;;21.40;54.00;;;;;;4833568;54;21039;-34
2022/10/06 02:08:20;;;;;;;28.58;22.70;;;21.40;54.10;;;;;;4846332;54;21032;-27
2022/10/06 02:13:26;;;;;;;27.75;22.15;;;21.40;54.10;;;;;;4795818;55;21044;-30
2022/10/06 02:18:27;;;;;;;27.85;22.02;;;21.40;54.00;;;;;;4795633;58;21509;-31
2022/10/06 02:23:29;;;;;;;28.25;21.92;;;21.40;54.10;;;;;;4832438;54;21011;-33
2022/10/06 02:28:30;;;;;;;27.45;21.73;;;21.40;54.00;;;;;;4795322;58;21067;-30
2022/10/06 02:33:31;;;;;;;29.27;22.37;;;21.40;54.00;;;;;;4796070;54;21036;-34
2022/10/06 02:38:32;;;;;;;26.65;20.45;;;21.40;54.00;;;;;;4829565;54;21130;-31
2022/10/06 02:43:33;;;;;;;25.30;19.77;;;21.40;53.90;;;;;;4804244;54;21088;-38
2022/10/06 02:48:34;;;;;;;30.30;21.15;;;21.40;53.90;;;;;;4795337;58;21138;-35
2022/10/06 02:53:35;;;;;;;25.60;20.30;;;21.40;54.50;;;;;;4814363;54;21083;-29
2022/10/06 02:58:41;;;;;;;25.55;20.17;;;21.40;54.00;;;;;;4830707;54;21012;-30
2022/10/06 03:03:42;;;;;;;23.30;19.10;;;21.40;53.90;;;;;;4814563;54;21621;-36
2022/10/06 03:08:43;;;;;;;24.48;19.83;;;21.30;53.80;;;;;;4798277;54;21075;-30
2022/10/06 03:13:48;;;;;;;24.02;18.55;;;21.40;53.90;;;;;;4822223;54;21088;-29
2022/10/06 03:18:52;;;;;;;24.77;19.73;;;21.40;53.80;;;;;;4876680;54;21454;-31
2022/10/06 03:23:55;;;;;;;23.42;19.12;;;21.40;53.90;;;;;;4892124;54;21115;-31
2022/10/06 03:28:55;;;;;;;23.73;19.02;;;21.30;53.80;;;;;;4873872;54;21011;-30
2022/10/06 03:33:56;;;;;;;22.95;18.17;;;21.40;53.80;;;;;;4852134;54;21047;-26
2022/10/06 03:38:57;;;;;;;25.33;19.25;;;21.40;53.80;;;;;;4795886;58;21025;-29
2022/10/06 03:44:00;;;;;;;21.70;17.30;;;21.30;53.80;;;;;;4794549;58;21091;-32
2022/10/06 03:49:01;;;;;;;22.02;18.37;;;21.30;53.80;;;;;;4824579;54;21093;-32
2022/10/06 03:54:02;;;;;;;25.17;18.83;;;21.30;53.80;;;;;;4799068;54;21016;-35
2022/10/06 03:59:08;;;;;;;21.27;17.58;;;21.30;53.80;;;;;;4827500;54;21015;-33
2022/10/06 04:04:10;;;;;;;21.20;16.93;;;21.30;53.70;;;;;;4807950;54;21450;-33
2022/10/06 04:09:13;;;;;;;23.95;17.20;;;21.40;53.70;;;;;;4806468;54;21056;-36
2022/10/06 04:14:15;;;;;;;20.88;16.60;;;21.30;54.40;;;;;;4847325;54;21471;-33
2022/10/06 04:19:17;;;;;;;19.95;16.12;;;21.30;53.70;;;;;;4795611;55;21569;-32
2022/10/06 04:24:17;;;;;;;22.40;17.20;;;21.30;53.70;;;;;;4801624;54;21008;-26
2022/10/06 04:29:21;;;;;;;19.90;16.10;;;21.30;53.90;;;;;;4818964;54;21031;-35
2022/10/06 04:34:22;;;;;;;18.70;15.70;;;21.30;53.90;;;;;;4806003;54;21099;-27
2022/10/06 04:39:22;;;;;;;20.90;16.62;;;21.30;53.90;;;;;;4822522;54;21040;-29
2022/10/06 04:44:23;;;;;;;20.88;16.17;;;21.30;53.90;;;;;;4867033;54;21059;-30
2022/10/06 04:49:24;;;;;;;18.77;15.80;;;21.30;53.90;;;;;;4795037;58;21044;-26
2022/10/06 04:54:26;;;;;;;20.95;16.83;;;21.30;53.80;;;;;;4819521;54;21616;-26
2022/10/06 05:04:47;;;;;;;20.35;15.15;;;21.30;53.80;;;;;;4795189;54;21120;-31
2022/10/06 05:09:47;;;;;;;20.20;15.82;;;21.30;53.90;;;;;;4816879;54;21332;-36
2022/10/06 05:14:48;;;;;;;19.40;14.93;;;21.30;53.90;;;;;;4796038;55;21011;-34
2022/10/06 05:19:49;;;;;;;20.20;15.80;;;21.30;53.90;;;;;;4799859;54;21011;-34
2022/10/06 05:24:52;;;;;;;19.60;15.35;;;21.30;53.80;;;;;;4818393;54;21016;-28
2022/10/06 05:29:53;;;;;;;18.02;14.50;;;21.30;53.90;;;;;;4798999;54;21482;-34
2022/10/06 05:34:54;;;;;;;19.73;15.05;;;21.30;53.80;;;;;;4795524;58;21043;-32
2022/10/06 05:39:55;;;;;;;19.83;15.10;;;21.30;53.90;;;;;;4802951;54;21126;-28
2022/10/06 05:44:55;;;;;;;19.37;15.00;;;21.30;53.90;;;;;;4814013;54;21028;-35
2022/10/06 05:49:56;;;;;;;19.15;15.20;;;21.30;53.90;;;;;;4839140;54;21103;-33
2022/10/06 05:54:57;;;;;;;19.20;15.93;;;21.30;53.90;;;;;;4823174;54;21059;-34
2022/10/06 05:59:58;;;;;;;20.23;15.95;;;21.30;54.00;;;;;;4795199;58;21004;-30
2022/10/06 06:04:58;;;;;;;18.65;15.32;;;21.30;53.80;;;;;;4794985;58;21509;-27
2022/10/06 06:09:59;;;;;;;20.58;15.80;;;21.30;53.80;;;;;;4822604;54;21503;-31
2022/10/06 06:20:19;;;;;;;19.48;15.90;;;21.30;53.90;;;;;;4795424;54;21147;-33
2022/10/06 06:25:20;;;;;;;20.27;16.05;;;21.30;53.90;;;;;;4894898;54;21516;-30
2022/10/06 06:30:21;;;;;;;20.67;16.25;;;21.30;53.90;;;;;;4815641;54;21079;-33
2022/10/06 06:35:22;;;;;;;18.70;15.10;;;21.30;53.90;;;;;;4795087;58;21572;-27
2022/10/06 06:40:23;;;;;;;22.00;16.85;;;21.30;53.90;;;;;;4817816;54;21064;-37
2022/10/06 06:45:24;;;;;;;21.60;16.60;;;21.30;53.90;;;;;;4809653;54;21110;-28
2022/10/06 06:50:24;;;;;;;21.52;17.23;;;21.30;54.00;;;;;;4815078;54;21267;-26
2022/10/06 06:55:25;;;;;;;23.02;17.98;;;21.30;54.00;;;;;;4811473;54;21083;-34
2022/10/06 07:00:26;;;;;;;25.17;20.35;;;21.40;53.80;;;;;;4800523;54;21489;-34
2022/10/06 07:05:27;;;;;;;27.48;22.20;;;21.40;53.80;;;;;;4794890;58;21554;-28
2022/10/06 07:10:35;;;;;;;29.87;23.77;;;21.40;53.80;;;;;;4795466;55;21047;-29
2022/10/06 07:26:14;;;;;;;40.35;29.08;;;21.60;53.20;;;;;;4795802;54;21095;-30
2022/10/06 07:31:17;;;;;;;46.58;31.10;;;21.60;53.00;;;;;;4825567;54;21521;-27
2022/10/06 07:36:20;;;;;;;47.22;32.90;;;21.60;52.90;;;;;;4799379;54;21493;-29
2022/10/06 07:41:21;;;;;;;53.83;35.88;;;21.70;53.10;;;;;;4794715;58;21656;-27
2022/10/06 07:46:25;;;;;;;48.85;35.40;;;21.70;53.60;;;;;;4846200;54;21028;-32
2022/10/06 07:51:28;;;;;;;51.90;34.47;;;21.70;53.50;;;;;;4805139;54;21091;-32
2022/10/06 07:56:30;;;;;;;53.33;37.53;;;21.70;53.50;;;;;;4816379;54;21068;-34
2022/10/06 08:01:31;;;;;;;50.80;36.25;;;21.70;53.40;;;;;;4799290;54;21607;-33
2022/10/06 08:06:33;;;;;;;53.20;35.92;;;21.80;54.00;;;;;;4795851;58;21008;-29
2022/10/06 08:11:34;;;;;;;54.58;38.15;;;21.80;54.00;;;;;;4803870;54;21063;-29
2022/10/06 08:16:35;;;;;;;51.28;36.00;;;21.80;53.90;;;;;;4804126;54;21611;-29
2022/10/06 08:21:37;;;;;;;55.58;38.97;;;21.80;54.00;;;;;;4817393;54;21035;-28
2022/10/06 08:26:38;;;;;;;56.72;40.60;;;21.90;54.10;;;;;;4832459;54;21530;-28
2022/10/06 08:31:39;;;;;;;58.97;41.40;;;21.90;53.90;;;;;;4807734;54;21063;-33
2022/10/06 08:36:40;;;;;;;61.28;42.95;;;21.90;54.20;;;;;;4809073;54;21000;-31
2022/10/06 08:41:50;;;;;;;59.17;44.42;;;22.00;54.40;;;;;;4794569;58;21035;-30
2022/10/06 08:47:33;;;;;;;66.85;47.13;;;22.00;54.40;;;;;;4810278;54;21035;-30
2022/10/06 08:56:17;;;;;;;63.90;46.30;;;22.00;54.50;;;;;;4802976;54;21035;-34
2022/10/06 09:01:24;;;;;;;69.00;50.17;;;22.00;54.50;;;;;;4802337;54;21541;-31
2022/10/06 09:06:48;;;;;;;73.70;52.53;;;22.00;54.30;;;;;;4819963;54;21502;-31
2022/10/06 09:12:16;;;;;;;73.43;53.45;;;22.00;54.30;;;;;;4802737;54;20999;-33
2022/10/06 09:17:40;;;;;;;76.15;53.75;;;22.00;54.30;;;;;;4804035;54;20976;-36
2022/10/06 09:22:44;;;;;;;76.57;55.08;;;22.00;54.30;;;;;;4795662;58;21000;-28
2022/10/06 09:27:52;;;;;;;74.03;51.75;;;22.00;54.10;;;;;;4795631;58;21150;-29
2022/10/06 09:33:01;;;;;;;71.50;53.03;;;22.00;54.60;;;;;;4812324;54;21047;-28
2022/10/06 09:38:03;;;;;;;77.00;55.05;;;22.00;54.60;;;;;;4795771;58;21030;-30
2022/10/06 09:43:25;;;;;;;74.45;54.78;;;22.00;54.70;;;;;;4815673;54;21043;-32
2022/10/06 09:48:26;;;;;;;73.85;54.55;;;22.00;54.70;;;;;;4818305;54;21060;-28
2022/10/06 09:53:27;;;;;;;75.62;57.03;;;22.00;54.70;;;;;;4843529;54;21573;-30
2022/10/06 09:58:33;;;;;;;75.28;53.87;;;22.00;54.70;;;;;;4824789;54;21015;-30
2022/10/06 10:03:51;;;;;;;82.35;58.87;;;22.00;54.70;;;;;;4813451;54;21027;-28
2022/10/06 10:09:33;;;;;;;80.12;57.47;;;22.10;54.40;;;;;;4796575;54;21497;-26
2022/10/06 10:14:37;;;;;;;80.70;60.00;;;22.10;54.90;;;;;;4799186;54;21012;-31
2022/10/06 10:19:42;;;;;;;82.03;61.05;;;22.10;55.00;;;;;;4798234;54;21701;-29
2022/10/06 10:25:43;;;;;;;83.62;62.62;;;22.20;55.20;;;;;;4830897;54;21508;-28
2022/10/06 10:31:08;;;;;;;88.80;65.35;;;22.20;55.20;;;;;;4801966;54;21874;-29
2022/10/06 10:36:13;;;;;;;96.68;67.95;;;22.30;55.50;;;;;;4847515;54;21552;-33
2022/10/06 10:41:22;;;;;;;99.13;72.60;;;22.40;55.60;;;;;;4817808;54;21147;-29
2022/10/06 10:46:37;;;;;;;98.82;73.30;;;22.30;55.50;;;;;;4797506;54;21114;-29
2022/10/06 10:52:19;;;;;;;113.88;83.15;;;22.30;55.50;;;;;;4813157;54;21071;-33
2022/10/06 10:57:23;;;;;;;113.03;83.97;;;22.30;55.50;;;;;;4847343;54;21103;-30
2022/10/06 11:02:26;;;;;;;119.03;86.05;;;22.40;55.70;;;;;;4824197;54;21059;-30
2022/10/06 11:07:45;;;;;;;119.35;87.62;;;22.40;55.80;;;;;;4809125;54;21672;-27
2022/10/06 11:15:05;;;;;;;123.93;91.75;;;22.40;55.80;;;;;;4803581;54;21024;-33
2022/10/06 11:20:32;;;;;;;116.75;86.45;;;22.50;56.20;;;;;;4848733;54;21493;-33
2022/10/06 11:27:44;;;;;;;119.90;86.80;;;22.50;56.20;;;;;;4795427;58;20992;-33
2022/10/06 11:34:18;;;;;;;118.57;87.75;;;22.50;56.50;;;;;;4812053;54;22168;-30
2022/10/06 11:39:26;;;;;;;119.95;89.87;;;22.40;56.10;;;;;;4805667;54;21597;-27
2022/10/06 11:44:43;;;;;;;122.57;87.10;;;22.40;56.00;;;;;;4832529;54;20992;-33
2022/10/06 11:49:50;;;;;;;;;;;22.40;56.10;;;;;;4827973;54;21015;-28
2022/10/06 11:55:14;;;;;;;112.95;85.32;;;22.40;56.00;;;;;;4851689;54;20278;-32
2022/10/06 12:01:01;;;;;;;113.25;85.95;;;22.40;56.20;;;;;;4795628;54;21498;-34
2022/10/06 12:06:02;;;;;;;109.53;80.60;;;22.30;56.00;;;;;;4795781;55;22229;-33
2022/10/06 12:11:36;;;;;;;109.65;80.22;;;22.40;56.90;;;;;;4835622;54;21035;-27
2022/10/06 12:16:42;;;;;;;105.75;80.50;;;22.40;56.50;;;;;;4796676;54;21024;-28
2022/10/06 12:22:08;;;;;;;106.67;80.13;;;22.50;56.60;;;;;;4802652;54;20996;-33
2022/10/06 12:27:40;;;;;;;105.27;78.90;;;22.50;56.80;;;;;;4841999;54;21047;-31
2022/10/06 12:33:04;;;;;;;107.03;78.28;;;22.50;56.70;;;;;;4823272;54;21059;-32
2022/10/06 12:38:25;;;;;;;107.70;80.72;;;22.50;57.00;;;;;;4795793;54;21549;-31
2022/10/06 12:43:29;;;;;;;111.05;82.22;;;22.50;57.20;;;;;;4796654;54;21498;-28
2022/10/06 12:49:00;;;;;;;107.75;78.43;;;22.50;57.20;;;;;;4822281;54;21509;-29
2022/10/06 12:56:38;;;;;;;107.28;79.20;;;22.50;57.40;;;;;;4841150;54;21494;-32
2022/10/06 13:01:39;;;;;;;108.03;78.05;;;22.60;57.40;;;;;;4798141;54;21008;-36
2022/10/06 13:06:48;;;;;;;114.10;80.62;;;22.60;57.50;;;;;;4813655;54;21473;-31
2022/10/06 13:11:49;;;;;;;102.43;74.07;;;22.60;57.50;;;;;;4812281;54;21051;-30
2022/10/06 13:16:50;;;;;;;97.43;74.70;;;22.60;57.60;;;;;;4805564;54;21016;-32
2022/10/06 13:21:51;;;;;;;103.95;78.12;;;22.60;57.60;;;;;;4819785;54;21036;-31
2022/10/06 13:26:52;;;;;;;97.15;74.90;;;22.60;57.70;;;;;;4808548;54;21020;-34
2022/10/06 13:31:55;;;;;;;105.32;78.75;;;22.60;57.60;;;;;;4808433;54;21044;-32
2022/10/06 13:36:58;;;;;;;104.68;76.87;;;22.60;57.50;;;;;;4804827;54;22225;-30
2022/10/06 13:42:09;;;;;;;107.78;79.72;;;22.60;57.70;;;;;;4795867;54;21103;-31
2022/10/06 13:47:22;;;;;;;95.28;72.65;;;22.60;57.80;;;;;;4817527;54;21493;-29
2022/10/06 13:52:46;;;;;;;107.45;78.22;;;22.60;57.80;;;;;;4810119;54;21083;-31
2022/10/06 13:57:50;;;;;;;109.95;81.75;;;22.60;57.80;;;;;;4793838;58;21003;-30
2022/10/06 14:03:08;;;;;;;104.68;80.62;;;22.60;57.90;;;;;;4793367;58;21596;-28
2022/10/06 14:08:30;;;;;;;107.25;80.22;;;22.60;57.90;;;;;;4858813;54;20991;-33
2022/10/06 14:16:22;;;;;;;105.15;79.25;;;22.60;58.30;;;;;;4793890;58;21071;-30
2022/10/06 14:21:43;;;;;;;109.25;82.03;;;22.50;58.10;;;;;;4796960;54;21004;-32
2022/10/06 14:26:45;;;;;;;105.72;78.72;;;22.50;58.20;;;;;;4826068;54;21008;-27
2022/10/06 14:31:47;;;;;;;101.45;78.93;;;22.40;58.20;;;;;;4818246;54;21036;-27
2022/10/06 14:36:54;;;;;;;105.10;79.28;;;22.40;58.30;;;;;;4821212;54;21103;-28
2022/10/06 14:41:54;;;;;;;98.18;75.37;;;22.30;58.20;;;;;;4836489;54;21589;-36
2022/10/06 14:46:56;;;;;;;99.60;76.75;;;22.40;58.40;;;;;;4810956;54;21032;-31
2022/10/06 14:51:57;;;;;;;103.78;77.43;;;22.30;58.40;;;;;;4795092;54;21561;-35
2022/10/06 14:56:58;;;;;;;98.32;76.28;;;22.30;58.40;;;;;;4812107;54;21114;-32
2022/10/06 15:01:59;;;;;;;98.93;76.85;;;22.30;58.40;;;;;;4805409;54;21004;-34
2022/10/06 15:12:19;;;;;;;94.07;74.72;;;22.20;58.50;;;;;;4795122;54;21167;-33
2022/10/06 15:17:21;;;;;;;94.53;72.20;;;22.20;58.50;;;;;;4827968;54;21019;-27
2022/10/06 15:22:22;;;;;;;93.57;73.95;;;22.20;58.40;;;;;;4804260;54;21469;-30
2022/10/06 15:32:42;;;;;;;93.43;71.85;;;22.20;58.50;;;;;;4820605;54;21814;-34
2022/10/06 15:37:43;;;;;;;93.75;72.97;;;22.10;58.40;;;;;;4813340;54;21051;-32
2022/10/06 15:42:48;;;;;;;92.97;72.28;;;22.10;58.40;;;;;;4794203;58;21502;-31
2022/10/06 15:47:50;;;;;;;91.35;72.43;;;22.10;58.40;;;;;;4800286;54;21542;-35
2022/10/06 15:52:51;;;;;;;88.43;70.07;;;22.10;58.50;;;;;;4819081;54;21557;-29
2022/10/06 15:57:55;;;;;;;87.25;68.37;;;22.10;58.50;;;;;;4797150;54;20992;-28
2022/10/06 16:02:56;;;;;;;87.07;70.05;;;22.10;58.50;;;;;;4819464;54;21460;-30
2022/10/06 16:07:56;;;;;;;83.28;65.72;;;22.10;58.50;;;;;;4800913;54;21008;-27
2022/10/06 16:12:57;;;;;;;85.53;68.87;;;22.10;58.50;;;;;;4817313;54;21465;-27
2022/10/06 16:17:58;;;;;;;85.18;66.82;;;22.10;58.50;;;;;;4828309;54;21003;-26
2022/10/06 16:22:59;;;;;;;84.13;66.87;;;22.10;58.50;;;;;;4842277;54;21068;-29
2022/10/06 16:28:00;;;;;;;84.85;65.97;;;22.10;58.50;;;;;;4832842;54;21027;-33
2022/10/06 16:33:01;;;;;;;84.72;67.12;;;22.10;58.60;;;;;;4811139;54;21067;-28
2022/10/06 16:38:05;;;;;;;81.53;66.72;;;22.00;58.40;;;;;;4828120;54;21060;-28
2022/10/06 16:43:06;;;;;;;83.78;65.82;;;22.10;58.50;;;;;;4802171;54;22261;-30
2022/10/06 16:48:07;;;;;;;85.05;66.50;;;22.00;58.50;;;;;;4813902;54;21011;-32
2022/10/06 16:53:08;;;;;;;81.30;63.45;;;22.00;58.50;;;;;;4816201;54;21008;-33
2022/10/06 16:58:09;;;;;;;83.62;66.97;;;22.00;58.50;;;;;;4814524;54;21052;-33
2022/10/06 17:03:10;;;;;;;78.05;62.50;;;22.00;58.40;;;;;;4797462;54;21090;-31
2022/10/06 17:08:10;;;;;;;80.55;64.78;;;22.00;58.50;;;;;;4794850;58;21564;-27
2022/10/06 17:13:11;;;;;;;78.97;65.20;;;22.00;58.50;;;;;;4794643;58;21108;-34
2022/10/06 17:18:12;;;;;;;75.97;62.35;;;22.00;58.50;;;;;;4807923;54;21011;-30
2022/10/06 17:23:13;;;;;;;79.85;63.38;;;22.00;58.60;;;;;;4817820;54;20984;-30
2022/10/06 17:28:14;;;;;;;78.72;62.25;;;22.00;58.60;;;;;;4844505;54;21008;-29
2022/10/06 17:33:15;;;;;;;81.75;64.55;;;22.00;58.50;;;;;;4801920;54;21075;-28
2022/10/06 17:38:16;;;;;;;76.07;59.92;;;22.00;58.50;;;;;;4821125;54;21115;-29
2022/10/06 17:43:16;;;;;;;77.43;61.28;;;22.00;58.50;;;;;;4820755;54;21027;-27
2022/10/06 17:48:17;;;;;;;73.45;59.47;;;22.00;58.50;;;;;;4820365;54;21003;-28
2022/10/06 17:53:21;;;;;;;74.47;59.70;;;22.00;58.60;;;;;;4794618;58;20992;-32
2022/10/06 17:58:22;;;;;;;74.80;59.47;;;22.00;58.50;;;;;;4825229;54;21066;-34
2022/10/06 18:03:25;;;;;;;77.72;61.10;;;22.00;58.50;;;;;;4830491;54;21560;-32
2022/10/06 18:08:32;;;;;;;76.53;61.45;;;22.00;58.60;;;;;;4800069;54;22134;-29
2022/10/06 18:13:33;;;;;;;75.30;60.47;;;22.00;58.60;;;;;;4848153;54;21510;-27
2022/10/06 18:18:34;;;;;;;79.87;61.50;;;22.00;59.00;;;;;;4830774;54;21000;-30
2022/10/06 18:23:37;;;;;;;76.60;59.67;;;22.00;58.60;;;;;;4811579;54;21023;-31
2022/10/06 18:28:39;;;;;;;74.90;59.42;;;22.00;58.60;;;;;;4795141;58;21012;-30
2022/10/06 18:33:41;;;;;;;72.70;59.03;;;22.00;58.60;;;;;;4841719;54;20984;-26
2022/10/06 18:38:46;;;;;;;76.53;61.85;;;22.00;58.60;;;;;;4795680;58;21509;-28
2022/10/06 18:43:47;;;;;;;70.53;58.13;;;22.00;58.60;;;;;;4795822;54;21524;-27
2022/10/06 18:48:54;;;;;;;69.85;57.13;;;22.00;58.60;;;;;;4817209;54;21008;-31
2022/10/06 18:53:56;;;;;;;68.10;56.90;;;22.00;58.60;;;;;;4809108;54;21560;-33
2022/10/06 18:58:59;;;;;;;70.97;57.67;;;22.00;58.60;;;;;;4812082;54;21059;-28
2022/10/06 19:04:03;;;;;;;72.62;57.28;;;22.00;58.60;;;;;;4815440;54;21000;-31
2022/10/06 19:09:05;;;;;;;69.32;57.67;;;22.00;58.60;;;;;;4849862;54;22269;-28
2022/10/06 19:14:13;;;;;;;72.12;58.03;;;22.00;58.60;;;;;;4795712;58;21477;-31
2022/10/06 19:19:18;;;;;;;72.03;57.40;;;22.00;58.60;;;;;;4795448;54;22227;-28
2022/10/06 19:24:20;;;;;;;73.60;58.70;;;22.00;59.20;;;;;;4796244;58;21521;-29
2022/10/06 19:29:25;;;;;;;71.68;57.85;;;22.00;58.60;;;;;;4814775;54;21000;-34
2022/10/06 19:34:26;;;;;;;69.95;57.15;;;22.00;58.60;;;;;;4811278;54;21554;-30
2022/10/06 19:39:31;;;;;;;68.55;56.17;;;22.00;59.30;;;;;;4804649;54;21091;-32
2022/10/06 19:44:32;;;;;;;70.72;57.03;;;21.90;58.50;;;;;;4837796;54;21509;-31
2022/10/06 19:49:34;;;;;;;65.45;54.45;;;22.00;58.70;;;;;;4795257;58;21059;-29
2022/10/06 19:54:37;;;;;;;68.15;55.60;;;21.90;58.60;;;;;;4821094;54;21123;-31
2022/10/06 19:59:38;;;;;;;68.15;55.42;;;21.90;58.50;;;;;;4804822;54;22189;-33
2022/10/06 20:05:00;;;;;;;67.57;55.72;;;21.90;58.50;;;;;;4813513;54;21012;-35
2022/10/06 20:10:02;;;;;;;67.15;54.60;;;21.90;58.50;;;;;;4809252;54;21087;-30
2022/10/06 20:15:03;;;;;;;68.15;54.88;;;22.00;58.60;;;;;;4816831;54;21466;-31
2022/10/06 20:20:05;;;;;;;66.37;52.88;;;21.90;58.50;;;;;;4811558;54;21051;-34
2022/10/06 20:25:09;;;;;;;67.60;53.55;;;21.90;58.50;;;;;;4856931;54;21028;-31
2022/10/06 20:30:10;;;;;;;66.15;53.28;;;22.00;58.60;;;;;;4814865;54;21561;-28
2022/10/06 20:35:12;;;;;;;68.43;53.78;;;21.90;58.50;;;;;;4823965;54;21036;-31
2022/10/06 20:40:48;;;;;;;67.07;52.85;;;21.90;58.50;;;;;;4795178;54;21521;-34
2022/10/06 20:45:52;;;;;;;67.95;54.40;;;21.90;58.50;;;;;;4818189;54;21554;-25
2022/10/06 20:50:53;;;;;;;66.72;52.75;;;21.90;58.50;;;;;;4794703;58;21036;-31
2022/10/06 20:55:54;;;;;;;64.62;52.58;;;21.90;58.50;;;;;;4918670;54;21035;-32
2022/10/06 21:01:04;;;;;;;66.45;53.40;;;21.90;58.40;;;;;;4813762;54;22194;-34
2022/10/06 21:06:05;;;;;;;64.32;52.10;;;21.90;58.40;;;;;;4833974;54;21577;-34
2022/10/06 21:11:06;;;;;;;63.15;51.33;;;21.90;58.40;;;;;;4823675;54;21250;-27
2022/10/06 21:16:07;;;;;;;62.85;51.10;;;21.90;58.40;;;;;;4820947;54;21012;-32
2022/10/06 21:21:10;;;;;;;62.70;50.50;;;21.90;58.30;;;;;;4802230;54;20988;-33
2022/10/06 21:26:14;;;;;;;60.97;49.80;;;21.90;58.40;;;;;;4795503;58;21589;-31
2022/10/06 21:31:17;;;;;;;65.22;50.88;;;21.90;58.40;;;;;;4830759;54;21028;-30
2022/10/06 21:36:20;;;;;;;60.10;48.15;;;21.90;58.30;;;;;;4795500;58;21031;-30
2022/10/06 21:41:30;;;;;;;60.08;49.88;;;21.90;58.40;;;;;;4822696;54;21035;-36
2022/10/06 21:46:40;;;;;;;59.80;48.80;;;21.90;58.40;;;;;;4835487;54;21522;-28
2022/10/06 21:51:44;;;;;;;58.58;47.88;;;21.90;58.40;;;;;;4816582;54;21498;-30
2022/10/06 21:56:45;;;;;;;57.70;47.33;;;21.90;58.40;;;;;;4800235;54;21525;-27
2022/10/06 22:01:48;;;;;;;57.55;46.78;;;21.90;58.40;;;;;;4855721;54;21011;-33
2022/10/06 22:06:49;;;;;;;58.05;47.95;;;21.90;58.40;;;;;;4827133;54;21526;-33
2022/10/06 22:11:50;;;;;;;59.35;47.17;;;21.90;58.50;;;;;;4797252;54;21075;-29
2022/10/06 22:16:51;;;;;;;60.95;48.05;;;21.90;58.40;;;;;;4802205;54;20991;-27
2022/10/06 22:21:53;;;;;;;58.92;46.97;;;21.90;58.40;;;;;;4801526;54;21552;-35
2022/10/06 22:26:54;;;;;;;56.60;46.40;;;21.90;58.40;;;;;;4799648;54;21067;-34
2022/10/06 22:31:58;;;;;;;57.13;46.33;;;21.90;58.40;;;;;;4888514;54;21095;-26
2022/10/06 22:36:59;;;;;;;55.30;45.55;;;21.90;58.40;;;;;;4814890;54;20988;-30
2022/10/06 22:42:00;;;;;;;54.78;45.25;;;21.90;58.40;;;;;;4822298;54;21574;-30
2022/10/06 22:47:01;;;;;;;57.97;46.00;;;21.90;58.40;;;;;;4814064;54;21007;-28
2022/10/06 22:52:01;;;;;;;55.72;44.67;;;21.90;58.30;;;;;;4796993;54;21031;-29
2022/10/06 22:57:04;;;;;;;54.38;45.10;;;21.90;58.40;;;;;;4799086;54;21473;-31
2022/10/06 23:02:05;;;;;;;54.50;45.20;;;21.90;58.30;;;;;;4822821;54;21509;-26
2022/10/06 23:07:06;;;;;;;53.97;43.58;;;21.90;58.40;;;;;;4828495;54;21004;-29
2022/10/06 23:12:06;;;;;;;54.47;45.22;;;21.80;58.30;;;;;;4805601;54;21023;-29
2022/10/06 23:17:07;;;;;;;53.70;44.10;;;21.90;58.30;;;;;;4809927;54;21474;-29
2022/10/06 23:22:08;;;;;;;53.80;44.22;;;21.90;58.30;;;;;;4798806;54;21589;-29
2022/10/06 23:27:09;;;;;;;52.92;43.58;;;21.90;58.30;;;;;;4795751;58;21011;-31
2022/10/06 23:32:09;;;;;;;54.55;42.85;;;21.80;58.30;;;;;;4802759;54;21060;-32
2022/10/06 23:37:10;;;;;;;50.70;42.75;;;21.80;58.20;;;;;;4816674;54;21035;-34
2022/10/06 23:42:11;;;;;;;50.20;41.05;;;21.90;58.30;;;;;;4800238;54;21532;-33
2022/10/06 23:47:13;;;;;;;52.60;42.62;;;21.80;58.30;;;;;;4800355;54;20984;-28
2022/10/06 23:52:14;;;;;;;48.53;41.03;;;21.80;58.30;;;;;;4794902;58;21051;-28
2022/10/06 23:57:15;;;;;;;49.17;40.55;;;21.80;58.30;;;;;;4808748;54;21012;-31
